createdAt,value
2022-11-22T00:02:10.313Z,7.65
2022-11-22T00:04:45.047Z,7.67
2022-11-22T00:07:18.536Z,7.67
2022-11-22T00:09:51.764Z,7.71
2022-11-22T00:12:24.923Z,7.73
2022-11-22T00:14:57.680Z,7.75
2022-11-22T00:17:31.331Z,7.78
2022-11-22T00:20:03.868Z,7.80
2022-11-22T00:22:43.974Z,7.84
2022-11-22T00:25:17.209Z,7.87
2022-11-22T00:27:50.607Z,7.88
2022-11-22T00:30:23.841Z,7.87
2022-11-22T00:32:57.125Z,7.83
2022-11-22T00:35:31.443Z,7.83
2022-11-22T00:38:05.647Z,7.84
2022-11-22T00:40:40.687Z,7.83
2022-11-22T00:43:14.476Z,7.78
2022-11-22T00:45:50.708Z,7.73
2022-11-22T00:48:24.924Z,7.70
2022-11-22T00:50:59.689Z,7.67
2022-11-22T00:53:33.206Z,7.69
2022-11-22T00:56:06.786Z,7.72
2022-11-22T00:58:41.090Z,7.76
2022-11-22T01:01:17.307Z,7.82
2022-11-22T01:03:51.934Z,7.88
2022-11-22T01:06:24.974Z,7.94
2022-11-22T01:08:56.886Z,8.00
2022-11-22T01:11:28.733Z,8.02
2022-11-22T01:14:00.933Z,8.01
2022-11-22T01:16:33.444Z,7.82
2022-11-22T01:19:06.410Z,7.68
2022-11-22T01:21:38.691Z,7.69
2022-11-22T01:24:11.422Z,7.71
2022-11-22T01:26:45.086Z,7.74
2022-11-22T01:29:17.860Z,7.74
2022-11-22T01:31:51.076Z,7.72
2022-11-22T01:34:23.100Z,7.73
2022-11-22T01:36:56.272Z,7.72
2022-11-22T01:39:29.709Z,7.72
2022-11-22T01:42:03.175Z,7.70
2022-11-22T01:44:40.631Z,7.66
2022-11-22T01:47:15.322Z,7.57
2022-11-22T01:49:50.716Z,7.45
2022-11-22T01:52:25.041Z,7.35
2022-11-22T01:55:02.047Z,7.22
2022-11-22T01:57:37.676Z,7.11
2022-11-22T02:00:13.679Z,7.08
2022-11-22T02:02:47.824Z,7.07
2022-11-22T02:05:22.355Z,7.06
2022-11-22T02:07:59.279Z,7.03
2022-11-22T02:10:33.161Z,6.98
2022-11-22T02:13:07.650Z,7.02
2022-11-22T02:15:40.638Z,7.07
2022-11-22T02:18:13.280Z,7.14
2022-11-22T02:20:46.258Z,7.13
2022-11-22T02:23:24.591Z,7.15
2022-11-22T02:25:59.664Z,7.17
2022-11-22T02:28:33.780Z,7.16
2022-11-22T02:31:07.782Z,7.18
2022-11-22T02:33:43.275Z,7.12
2022-11-22T02:36:19.547Z,7.02
2022-11-22T02:38:53.005Z,6.98
2022-11-22T02:41:26.565Z,6.95
2022-11-22T02:43:59.447Z,6.90
2022-11-22T02:46:33.053Z,6.94
2022-11-22T02:49:10.231Z,6.96
2022-11-22T02:51:44.327Z,6.97
2022-11-22T02:54:17.111Z,6.93
2022-11-22T02:56:51.170Z,6.82
2022-11-22T02:59:23.862Z,6.84
2022-11-22T03:02:01.677Z,6.83
2022-11-22T03:04:38.983Z,6.80
2022-11-22T03:07:10.882Z,6.74
2022-11-22T03:09:42.980Z,6.66
2022-11-22T03:12:14.891Z,6.60
2022-11-22T03:14:46.977Z,6.58
2022-11-22T03:17:20.262Z,6.53
2022-11-22T03:19:53.596Z,6.46
2022-11-22T03:22:26.276Z,6.47
2022-11-22T03:25:00.039Z,6.41
2022-11-22T03:27:35.220Z,6.33
2022-11-22T03:30:10.348Z,6.33
2022-11-22T03:32:43.841Z,6.34
2022-11-22T03:35:18.829Z,6.30
2022-11-22T03:37:52.924Z,6.29
2022-11-22T03:40:24.839Z,6.32
2022-11-22T03:42:57.571Z,6.32
2022-11-22T03:45:30.788Z,6.31
2022-11-22T03:48:03.828Z,6.33
2022-11-22T03:50:37.922Z,6.35
2022-11-22T03:53:10.038Z,6.34
2022-11-22T03:55:42.272Z,6.15
2022-11-22T03:58:16.083Z,5.99
2022-11-22T04:00:50.984Z,5.96
2022-11-22T04:03:22.837Z,5.93
2022-11-22T04:05:56.426Z,5.89
2022-11-22T04:08:28.383Z,5.88
2022-11-22T04:11:01.486Z,5.83
2022-11-22T04:13:48.706Z,5.75
2022-11-22T04:16:20.761Z,5.66
2022-11-22T04:18:53.498Z,5.62
2022-11-22T04:21:36.224Z,5.55
2022-11-22T04:24:28.476Z,5.47
2022-11-22T04:27:01.400Z,5.37
2022-11-22T04:29:34.776Z,5.33
2022-11-22T04:32:25.387Z,5.31
2022-11-22T04:34:58.237Z,5.30
2022-11-22T04:37:32.293Z,5.20
2022-11-22T04:40:04.868Z,5.17
2022-11-22T04:42:55.613Z,5.12
2022-11-22T04:45:31.727Z,5.04
2022-11-22T04:48:06.505Z,4.92
2022-11-22T04:50:57.570Z,4.85
2022-11-22T04:53:32.742Z,4.82
2022-11-22T04:56:04.953Z,4.84
2022-11-22T04:58:40.329Z,4.77
2022-11-22T05:01:14.139Z,4.71
2022-11-22T05:03:47.510Z,4.71
2022-11-22T05:06:20.813Z,4.68
2022-11-22T05:08:52.817Z,4.68
2022-11-22T05:11:25.035Z,4.68
2022-11-22T05:13:57.318Z,4.71
2022-11-22T05:16:29.165Z,4.65
2022-11-22T05:19:01.535Z,4.59
2022-11-22T05:21:37.470Z,4.63
2022-11-22T05:24:10.857Z,4.60
2022-11-22T05:26:46.152Z,4.60
2022-11-22T05:29:19.601Z,4.58
2022-11-22T05:31:52.228Z,4.57
2022-11-22T05:34:23.983Z,4.56
2022-11-22T05:36:58.814Z,4.45
2022-11-22T05:39:30.839Z,4.43
2022-11-22T05:42:06.538Z,4.41
2022-11-22T05:44:42.873Z,4.39
2022-11-22T05:47:15.733Z,4.36
2022-11-22T05:49:49.322Z,4.38
2022-11-22T05:52:21.427Z,4.36
2022-11-22T05:54:53.298Z,4.33
2022-11-22T05:57:26.297Z,4.34
2022-11-22T05:59:59.468Z,4.33
2022-11-22T06:02:35.640Z,4.28
2022-11-22T06:05:10.117Z,4.28
2022-11-22T06:07:44.973Z,4.26
2022-11-22T06:10:17.443Z,4.29
2022-11-22T06:12:54.155Z,4.29
2022-11-22T06:15:26.156Z,4.29
2022-11-22T06:17:59.824Z,4.28
2022-11-22T06:20:32.974Z,4.30
2022-11-22T06:23:09.907Z,4.34
2022-11-22T06:25:44.727Z,4.35
2022-11-22T06:28:16.739Z,4.32
2022-11-22T06:30:50.939Z,4.35
2022-11-22T06:33:24.499Z,4.40
2022-11-22T06:35:56.399Z,4.39
2022-11-22T06:38:29.230Z,4.44
2022-11-22T06:41:06.308Z,4.50
2022-11-22T06:43:48.017Z,4.56
2022-11-22T06:46:23.824Z,4.60
2022-11-22T06:48:56.100Z,4.66
2022-11-22T06:51:32.234Z,4.68
2022-11-22T06:54:04.502Z,4.70
2022-11-22T06:56:41.714Z,4.70
2022-11-22T06:59:14.241Z,4.73
2022-11-22T07:01:46.226Z,4.77
2022-11-22T07:04:19.381Z,4.82
2022-11-22T07:06:53.119Z,4.87
2022-11-22T07:09:26.555Z,4.95
2022-11-22T07:12:02.475Z,5.03
2022-11-22T07:14:34.606Z,5.07
2022-11-22T07:17:06.516Z,5.11
2022-11-22T07:19:38.680Z,5.17
2022-11-22T07:22:10.592Z,5.25
2022-11-22T07:24:43.790Z,5.27
2022-11-22T07:27:16.528Z,5.32
2022-11-22T07:29:48.857Z,5.39
2022-11-22T07:32:20.975Z,5.48
2022-11-22T07:34:53.502Z,5.58
2022-11-22T07:37:25.548Z,5.59
2022-11-22T07:39:57.434Z,5.64
2022-11-22T07:42:29.475Z,5.73
2022-11-22T07:45:02.511Z,5.83
2022-11-22T07:47:34.687Z,5.94
2022-11-22T07:50:09.176Z,6.03
2022-11-22T07:52:42.137Z,6.11
2022-11-22T07:55:14.841Z,6.19
2022-11-22T07:57:49.355Z,6.31
2022-11-22T08:00:22.387Z,6.51
2022-11-22T08:02:55.064Z,6.73
2022-11-22T08:05:27.703Z,6.86
2022-11-22T08:08:01.390Z,6.98
2022-11-22T08:10:33.688Z,7.06
2022-11-22T08:13:06.402Z,7.04
2022-11-22T08:15:38.671Z,7.02
2022-11-22T08:18:10.877Z,7.00
2022-11-22T08:20:43.380Z,7.02
2022-11-22T08:23:18.175Z,7.03
2022-11-22T08:25:50.928Z,7.15
2022-11-22T08:28:23.358Z,7.25
2022-11-22T08:31:02.283Z,7.36
2022-11-22T08:33:34.859Z,7.58
2022-11-22T08:36:10.599Z,7.70
2022-11-22T08:38:43.097Z,7.77
2022-11-22T08:41:15.268Z,7.81
2022-11-22T08:43:47.630Z,7.95
2022-11-22T08:46:20.962Z,8.02
2022-11-22T08:48:56.129Z,8.10
2022-11-22T08:51:28.340Z,8.17
2022-11-22T08:54:01.491Z,8.21
2022-11-22T08:56:35.118Z,8.30
2022-11-22T08:59:09.823Z,8.42
2022-11-22T09:01:43.627Z,8.52
2022-11-22T09:04:16.406Z,8.55
2022-11-22T09:09:45.299Z,8.83
2022-11-22T09:12:17.959Z,8.89
2022-11-22T09:14:50.540Z,9.08
2022-11-22T09:17:23.395Z,9.23
2022-11-22T09:19:57.475Z,9.38
2022-11-22T09:22:30.625Z,9.58
2022-11-22T09:25:05.508Z,9.73
2022-11-22T09:27:37.826Z,9.79
2022-11-22T09:30:14.826Z,9.91
2022-11-22T09:32:49.621Z,9.98
2022-11-22T09:35:21.665Z,10.02
2022-11-22T09:37:54.672Z,10.09
2022-11-22T09:40:27.089Z,10.22
2022-11-22T09:43:09.637Z,10.30
2022-11-22T09:46:06.642Z,10.43
2022-11-22T09:48:57.010Z,10.47
2022-11-22T09:51:34.059Z,10.46
2022-11-22T09:54:09.390Z,10.56
2022-11-22T09:56:43.017Z,10.64
2022-11-22T09:59:16.670Z,10.81
2022-11-22T10:01:51.925Z,10.94
2022-11-22T10:04:29.789Z,11.04
2022-11-22T10:07:05.048Z,11.19
2022-11-22T10:09:41.034Z,11.23
2022-11-22T10:12:19.722Z,11.33
2022-11-22T10:14:55.407Z,11.45
2022-11-22T10:17:43.913Z,11.50
2022-11-22T10:20:18.271Z,11.47
2022-11-22T10:22:53.496Z,11.60
2022-11-22T10:25:33.448Z,11.69
2022-11-22T10:28:21.847Z,11.86
2022-11-22T10:31:00.305Z,11.93
2022-11-22T10:33:44.201Z,12.00
2022-11-22T10:36:25.454Z,12.11
2022-11-22T10:39:07.392Z,12.24
2022-11-22T10:41:47.603Z,12.33
2022-11-22T10:44:30.939Z,12.41
2022-11-22T10:47:12.014Z,12.48
2022-11-22T10:49:51.456Z,12.54
2022-11-22T10:52:30.891Z,12.60
2022-11-22T10:55:19.183Z,12.70
2022-11-22T10:57:59.450Z,12.81
2022-11-22T11:00:33.613Z,12.84
2022-11-22T11:03:24.674Z,12.95
2022-11-22T11:11:50.783Z,13.11
2022-11-22T11:14:29.891Z,13.05
2022-11-22T11:17:04.362Z,13.04
2022-11-22T11:19:42.999Z,13.05
2022-11-22T11:22:42.676Z,13.12
2022-11-22T11:25:33.597Z,13.19
2022-11-22T11:28:08.867Z,13.29
2022-11-22T11:30:46.532Z,13.39
2022-11-22T11:33:35.319Z,13.48
2022-11-22T11:36:12.026Z,13.60
2022-11-22T11:38:57.660Z,13.73
2022-11-22T11:41:37.488Z,13.84
2022-11-22T11:44:32.173Z,13.85
2022-11-22T11:47:06.102Z,13.96
2022-11-22T11:49:39.052Z,14.11
2022-11-22T11:52:17.558Z,14.24
2022-11-22T11:54:52.105Z,14.39
2022-11-22T11:57:28.576Z,14.66
2022-11-22T12:00:06.555Z,14.87
2022-11-22T13:27:08.908Z,13.43
2022-11-22T13:29:43.044Z,13.44
2022-11-22T13:32:24.014Z,13.43
2022-11-22T13:35:26.707Z,13.47
2022-11-22T13:38:01.013Z,13.39
2022-11-22T13:40:35.076Z,13.29
2022-11-22T13:43:44.025Z,13.22
2022-11-22T13:46:45.632Z,13.16
2022-11-22T13:49:35.276Z,13.06
2022-11-22T13:52:34.998Z,13.03
2022-11-22T13:55:41.719Z,13.00
2022-11-22T13:58:56.348Z,12.98
2022-11-22T14:01:58.755Z,12.92
2022-11-22T14:04:38.462Z,12.84
2022-11-22T14:07:35.318Z,12.83
2022-11-22T14:10:29.158Z,12.76
2022-11-22T14:13:15.378Z,12.70
2022-11-22T14:15:59.433Z,12.63
2022-11-22T14:19:01.462Z,12.63
2022-11-22T14:21:50.304Z,12.55
2022-11-22T14:24:34.990Z,12.48
2022-11-22T14:27:14.462Z,12.45
2022-11-22T14:30:14.369Z,12.43
2022-11-22T14:32:51.726Z,12.39
2022-11-22T14:35:31.405Z,12.35
2022-11-22T14:38:30.913Z,12.35
2022-11-22T14:41:38.281Z,12.29
2022-11-22T14:44:14.973Z,12.08
2022-11-22T14:46:55.360Z,11.93
2022-11-22T14:49:38.680Z,11.92
2022-11-22T14:52:20.127Z,11.87
2022-11-22T14:54:55.790Z,11.76
2022-11-22T14:57:29.064Z,11.65
2022-11-22T15:00:11.820Z,11.60
2022-11-22T15:03:14.410Z,11.51
2022-11-22T15:09:13.691Z,11.28
2022-11-22T15:09:46.640Z,11.29
2022-11-22T15:12:43.320Z,11.20
2022-11-22T15:57:31.066Z,10.36
2022-11-22T16:00:10.323Z,10.33
2022-11-22T16:02:50.943Z,10.30
2022-11-22T16:06:05.266Z,10.29
2022-11-22T16:08:31.069Z,10.30
2022-11-22T16:11:07.850Z,10.27
2022-11-22T16:13:41.815Z,10.26
2022-11-22T16:16:28.948Z,10.26
2022-11-22T16:19:26.708Z,10.21
2022-11-22T16:22:03.738Z,10.19
2022-11-22T16:24:38.842Z,10.23
2022-11-22T16:27:17.026Z,10.27
2022-11-22T16:29:55.447Z,10.33
2022-11-22T16:32:27.722Z,10.40
2022-11-22T16:35:27.677Z,10.36
2022-11-22T16:37:54.285Z,10.36
2022-11-22T16:40:31.651Z,10.40
2022-11-22T16:43:09.499Z,10.43
2022-11-22T16:45:41.844Z,10.49
2022-11-22T16:48:31.250Z,10.54
2022-11-22T16:51:09.767Z,10.50
2022-11-22T16:53:46.282Z,10.50
2022-11-22T16:56:22.936Z,10.55
2022-11-22T16:58:58.260Z,10.56
2022-11-22T17:01:36.160Z,10.59
2022-11-22T17:04:12.020Z,10.67
2022-11-22T17:06:44.872Z,10.72
2022-11-22T17:09:17.408Z,10.76
2022-11-22T17:11:53.367Z,10.74
2022-11-22T17:14:29.408Z,10.76
2022-11-22T17:17:02.642Z,10.83
2022-11-22T17:19:53.569Z,10.89
2022-11-22T17:22:30.758Z,10.95
2022-11-22T17:25:03.653Z,11.02
2022-11-22T17:27:37.154Z,11.05
2022-11-22T17:30:12.975Z,11.03
2022-11-22T17:32:45.966Z,11.02
2022-11-22T17:35:18.901Z,11.02
2022-11-22T17:37:51.072Z,11.02
2022-11-22T17:40:25.325Z,10.94
2022-11-22T17:42:58.810Z,10.84
2022-11-22T17:45:33.164Z,10.85
2022-11-22T17:48:07.306Z,10.82
2022-11-22T17:50:39.223Z,10.74
2022-11-22T17:53:11.071Z,10.72
2022-11-22T17:56:09.351Z,10.75
2022-11-22T17:58:40.213Z,10.71
2022-11-22T18:01:14.342Z,10.69
2022-11-22T18:03:48.437Z,10.66
2022-11-22T18:06:26.498Z,10.62
2022-11-22T18:09:00.448Z,10.59
2022-11-22T18:11:34.129Z,10.58
2022-11-22T18:14:06.961Z,10.58
2022-11-22T18:16:41.147Z,10.63
2022-11-22T18:19:16.247Z,10.59
2022-11-22T18:21:49.476Z,10.53
2022-11-22T18:24:22.979Z,10.54
2022-11-22T18:26:56.494Z,10.58
2022-11-22T18:29:42.589Z,10.62
2022-11-22T18:32:16.194Z,10.61
2022-11-22T18:34:50.688Z,10.61
2022-11-22T18:37:25.775Z,10.60
2022-11-22T18:39:58.228Z,10.67
2022-11-22T18:42:34.693Z,10.74
2022-11-22T18:45:08.793Z,10.82
2022-11-22T18:47:45.779Z,10.90
2022-11-22T18:50:19.936Z,10.97
2022-11-22T18:52:52.134Z,10.98
2022-11-22T18:55:25.171Z,10.88
2022-11-22T18:57:59.440Z,10.87
2022-11-22T19:00:33.874Z,10.82
2022-11-22T19:03:11.148Z,10.82
2022-11-22T19:05:44.758Z,10.82
2022-11-22T19:08:17.912Z,10.82
2022-11-22T19:10:59.941Z,10.83
2022-11-22T19:13:38.466Z,10.86
2022-11-22T19:16:12.510Z,10.87
2022-11-22T19:18:46.736Z,10.89
2022-11-22T19:21:28.116Z,10.82
2022-11-22T19:24:05.493Z,10.79
2022-11-22T19:26:39.079Z,10.79
2022-11-22T19:29:13.639Z,10.78
2022-11-22T19:31:47.208Z,10.78
2022-11-22T19:34:19.575Z,10.76
2022-11-22T19:36:51.907Z,10.67
2022-11-22T19:39:28.361Z,10.57
2022-11-22T19:42:00.620Z,10.49
2022-11-22T19:44:38.006Z,10.47
2022-11-22T19:47:11.293Z,10.46
2022-11-22T19:49:43.619Z,10.49
2022-11-22T19:52:16.958Z,10.49
2022-11-22T19:54:50.610Z,10.36
2022-11-22T19:57:24.914Z,10.30
2022-11-22T20:00:00.050Z,10.19
2022-11-22T20:02:34.018Z,10.09
2022-11-22T20:05:12.544Z,10.09
2022-11-22T20:07:48.801Z,10.08
2022-11-22T20:10:22.004Z,10.08
2022-11-22T20:12:54.661Z,10.07
2022-11-22T20:15:29.192Z,10.10
2022-11-22T20:18:04.329Z,10.13
2022-11-22T20:20:36.252Z,10.13
2022-11-22T20:23:09.776Z,10.12
2022-11-22T20:25:43.815Z,10.11
2022-11-22T20:28:18.605Z,10.09
2022-11-22T20:30:53.004Z,10.08
2022-11-22T20:33:26.563Z,10.07
2022-11-22T20:36:06.974Z,10.01
2022-11-22T20:38:43.228Z,9.97
2022-11-22T20:41:18.914Z,9.97
2022-11-22T20:43:52.778Z,9.98
2022-11-22T20:46:26.804Z,9.94
2022-11-22T20:49:00.888Z,9.86
2022-11-22T20:51:36.045Z,9.84
2022-11-22T20:54:10.145Z,9.81
2022-11-22T20:56:43.034Z,9.80
2022-11-22T20:59:16.118Z,9.79
2022-11-22T21:01:49.327Z,9.78
2022-11-22T21:04:23.263Z,9.74
2022-11-22T21:06:58.319Z,9.61
2022-11-22T21:09:31.295Z,9.54
2022-11-22T21:12:03.991Z,9.49
2022-11-22T21:14:35.980Z,9.40
2022-11-22T21:17:37.165Z,9.34
2022-11-22T21:20:01.306Z,9.28
2022-11-22T21:22:35.090Z,9.23
2022-11-22T21:25:10.422Z,9.10
2022-11-22T21:27:43.957Z,8.98
2022-11-22T21:30:19.389Z,8.95
2022-11-22T21:32:52.176Z,8.88
2022-11-22T21:35:25.436Z,8.81
2022-11-22T21:38:01.218Z,8.73
2022-11-22T21:40:34.216Z,8.64
2022-11-22T21:43:10.547Z,8.58
2022-11-22T21:45:43.009Z,8.56
2022-11-22T21:48:17.702Z,8.52
2022-11-22T21:50:52.057Z,8.53
2022-11-22T21:53:27.717Z,8.49
2022-11-22T21:56:04.049Z,8.42
2022-11-22T21:58:36.680Z,8.36
2022-11-22T22:01:14.055Z,8.33
2022-11-22T22:03:48.417Z,8.28
2022-11-22T22:06:21.120Z,8.20
2022-11-22T22:08:53.320Z,8.11
2022-11-22T22:11:27.652Z,8.04
2022-11-22T22:13:59.834Z,7.94
2022-11-22T22:16:34.046Z,7.91
2022-11-22T22:19:10.497Z,7.88
2022-11-22T22:21:42.412Z,7.89
2022-11-22T22:24:17.015Z,7.88
2022-11-22T22:26:49.727Z,7.78
2022-11-22T22:29:23.397Z,7.68
2022-11-22T22:31:57.676Z,7.68
2022-11-22T22:34:32.459Z,7.66
2022-11-22T22:37:04.565Z,7.60
2022-11-22T22:39:39.100Z,7.53
2022-11-22T22:42:11.722Z,7.42
2022-11-22T22:44:44.563Z,7.37
2022-11-22T22:47:17.921Z,7.30
2022-11-22T22:49:51.480Z,7.26
2022-11-22T22:52:23.292Z,7.19
2022-11-22T22:54:56.007Z,7.18
2022-11-22T22:57:29.280Z,7.18
2022-11-22T23:00:02.610Z,7.23
2022-11-22T23:02:35.382Z,7.26
2022-11-22T23:05:10.369Z,7.31
2022-11-22T23:07:44.021Z,7.33
2022-11-22T23:10:16.983Z,7.31
2022-11-22T23:12:49.940Z,7.26
2022-11-22T23:15:43.875Z,7.23
2022-11-22T23:18:14.636Z,7.16
2022-11-22T23:20:50.119Z,7.12
2022-11-22T23:23:23.450Z,7.09
2022-11-22T23:26:03.149Z,7.04
2022-11-22T23:28:38.182Z,7.01
2022-11-22T23:31:15.666Z,6.99
2022-11-22T23:33:50.411Z,6.98
2022-11-22T23:36:25.314Z,6.99
2022-11-22T23:38:57.890Z,6.95
2022-11-22T23:41:33.480Z,6.91
2022-11-22T23:44:07.659Z,6.91
2022-11-22T23:46:40.894Z,6.90
2022-11-22T23:49:15.478Z,6.91
2022-11-22T23:51:50.402Z,6.88
2022-11-22T23:54:22.396Z,6.83
2022-11-22T23:56:56.535Z,6.81
2022-11-22T23:59:28.854Z,6.74
